ROMMA est une association bénévole à but non lucratif. Votre soutien est indispensable : ADHERER à ROMMA ou FAIRE un DON

Die - (26, Drôme)

Diois (400 m)   Longitude: 5° 21' 55"E   Latitude: 44° 45' 16"N Station partenaire n°159
 

Détail journalier du     <<     >>

Température Precipitation Humidité Pression Vent Dir Rafale Dir. rafale Ensol.
Heure (°C) (mm) (%) (hPa) (km/h) (km/h) (min)
01:00 6.5090102003S0
02:00 5.4091102005S0
03:00 4.8093102003S0
04:00 4.4093102002S0
05:00 3.8094102002S0
06:00 3.4094102003S0
07:00 3.1094102005S0
08:00 3.4095102003S0
09:00 3.9096102003S0
10:00 7.609010211S6SSO0
11:00 12.707210202E6SO60
12:00 15.606010202SSO8NO60
13:00 19.304610192ONO8ONO60
14:00 22.103810183ONO10NO60
15:00 23.703510173OSO10ONO60
16:00 24.603510173ONO10ONO60
17:00 24.603810164ONO11O60
18:00 22.104610162SSO6NO60
19:00 20.204910175NO10NNO0
20:00 16.606410172NE8NNO0
21:00 13.9079101805SSO0
22:00 13.607910181SSO3SSO0
23:00 13.807910191S6SSE0
minuit 12.7082101803S0

Graphique du 08-10-2019

 

Serveur OMMA